createdAt,value
2018-10-12T11:42:44.369Z,25.17
2018-10-12T11:43:44.529Z,25.20
2018-10-12T11:44:44.717Z,25.09
2018-10-12T11:45:44.845Z,25.01
2018-10-12T11:46:45.001Z,25.06
2018-10-12T11:47:45.155Z,25.13
2018-10-12T11:48:45.320Z,25.28
2018-10-12T11:49:45.475Z,25.44
2018-10-12T11:50:45.631Z,25.56
2018-10-12T11:51:45.792Z,25.57
2018-10-12T11:52:45.952Z,25.20
2018-10-12T11:53:46.107Z,25.22
2018-10-12T11:54:46.265Z,25.44
2018-10-12T11:55:46.424Z,25.22
2018-10-12T11:56:46.582Z,25.35
2018-10-12T11:57:46.744Z,25.38
2018-10-12T11:58:46.903Z,25.39
2018-10-12T11:59:47.062Z,25.54
2018-10-12T12:00:47.256Z,25.47
2018-10-12T12:01:47.376Z,25.37
2018-10-12T12:02:47.539Z,25.44
2018-10-12T12:03:47.699Z,25.50
2018-10-12T12:04:47.858Z,25.61
2018-10-12T12:05:48.018Z,25.57
2018-10-12T12:06:48.180Z,25.74
2018-10-12T12:07:48.340Z,25.75
2018-10-12T12:08:48.498Z,25.72
2018-10-12T12:09:48.654Z,25.91
2018-10-12T12:10:48.813Z,25.83
2018-10-12T12:11:48.973Z,25.91
2018-10-12T12:12:49.131Z,25.80
2018-10-12T12:13:49.377Z,25.82
2018-10-12T12:14:49.454Z,25.89
2018-10-12T12:15:49.612Z,25.94
2018-10-12T12:16:49.775Z,25.65
2018-10-12T12:17:49.933Z,25.90
2018-10-12T12:18:50.098Z,25.89
2018-10-12T12:19:50.256Z,25.99
2018-10-12T12:20:50.418Z,26.01
2018-10-12T12:21:50.578Z,26.01
2018-10-12T12:22:50.737Z,26.09
2018-10-12T12:23:50.909Z,26.12
2018-10-12T12:24:51.070Z,26.21
2018-10-12T12:25:51.233Z,26.35
2018-10-12T12:26:51.391Z,26.50
2018-10-12T12:27:51.546Z,26.61
2018-10-12T12:28:51.707Z,26.73
2018-10-12T12:29:51.869Z,26.68
2018-10-12T12:30:52.026Z,26.77
2018-10-12T12:31:52.186Z,26.89
2018-10-12T12:32:52.344Z,26.94
2018-10-12T12:33:52.505Z,26.92
2018-10-12T12:34:52.820Z,26.83
2018-10-12T12:35:53.213Z,26.94
2018-10-12T12:36:52.985Z,27.09
2018-10-12T12:37:53.150Z,26.86
2018-10-12T12:38:53.302Z,26.69
2018-10-12T12:39:53.463Z,26.52
2018-10-12T12:40:53.625Z,26.52
2018-10-12T12:41:53.782Z,26.55
2018-10-12T12:42:53.942Z,26.59
2018-10-12T12:43:54.101Z,26.64
2018-10-12T12:44:54.263Z,26.72
2018-10-12T12:45:54.429Z,26.52
2018-10-12T12:46:54.586Z,26.57
2018-10-12T12:47:54.910Z,26.50
2018-10-12T12:48:55.362Z,26.49
2018-10-12T12:49:55.061Z,26.64
2018-10-12T12:50:55.231Z,26.79
2018-10-12T12:51:55.385Z,26.92
2018-10-12T12:52:55.545Z,26.96
2018-10-12T12:53:55.758Z,26.89
2018-10-12T12:54:55.865Z,26.91
2018-10-12T12:55:56.024Z,26.81
2018-10-12T12:56:56.185Z,26.72
2018-10-12T12:57:56.345Z,27.01
2018-10-12T12:58:56.502Z,27.14
2018-10-12T12:59:56.663Z,27.23
2018-10-12T13:00:56.824Z,27.51
2018-10-12T13:01:56.989Z,28.07
2018-10-12T13:02:57.145Z,28.48
2018-10-12T13:03:57.304Z,28.41
2018-10-12T13:04:57.465Z,29.01
2018-10-12T13:05:57.622Z,29.74
2018-10-12T13:06:57.784Z,30.59
2018-10-12T13:07:57.945Z,31.45
2018-10-12T13:08:58.102Z,32.24
2018-10-12T13:09:58.266Z,31.75
2018-10-12T13:10:58.424Z,31.95
2018-10-12T13:11:58.587Z,31.45
2018-10-12T13:12:58.744Z,31.53
2018-10-12T13:13:58.904Z,31.99
2018-10-12T13:14:59.064Z,32.54
2018-10-12T13:15:59.225Z,32.73
2018-10-12T13:16:59.384Z,33.22
2018-10-12T13:17:59.545Z,33.82
2018-10-12T13:18:59.707Z,33.85
2018-10-12T13:19:59.868Z,33.58
2018-10-12T13:21:00.029Z,33.67
2018-10-12T13:22:00.191Z,33.80
2018-10-12T13:23:00.352Z,34.05
2018-10-12T13:24:00.514Z,33.60
2018-10-12T13:25:00.677Z,33.42
2018-10-12T13:26:01.033Z,33.03
2018-10-12T13:27:01.002Z,33.52
2018-10-12T13:28:01.165Z,32.96
2018-10-12T13:29:01.328Z,32.35
2018-10-12T13:30:01.490Z,32.15
2018-10-12T13:31:01.653Z,31.67
2018-10-12T13:32:01.894Z,30.11
2018-10-12T13:33:01.981Z,29.50
2018-10-12T13:34:02.146Z,28.75
2018-10-12T13:35:02.311Z,28.33
2018-10-12T13:36:02.474Z,28.03
2018-10-12T13:37:02.637Z,27.84
2018-10-12T13:38:02.801Z,27.62
2018-10-12T13:39:02.965Z,27.43
2018-10-12T13:40:03.179Z,27.10
2018-10-12T13:41:03.288Z,26.84
2018-10-12T13:42:03.463Z,26.83
2018-10-12T13:43:03.636Z,26.65
2018-10-12T13:44:03.765Z,26.68
2018-10-12T13:45:03.927Z,26.68
2018-10-12T13:46:04.089Z,26.73
2018-10-12T13:47:04.251Z,26.52
2018-10-12T13:48:04.412Z,26.64
2018-10-12T13:49:04.631Z,26.62
2018-10-12T13:50:04.739Z,26.61
2018-10-12T13:51:04.893Z,26.65
2018-10-12T13:52:05.055Z,26.74
2018-10-12T13:53:05.215Z,26.72
2018-10-12T13:54:05.374Z,26.59
2018-10-12T13:55:05.537Z,26.54
2018-10-12T13:56:05.698Z,26.36
2018-10-12T13:57:05.858Z,26.36
2018-10-12T13:58:06.018Z,26.35
2018-10-12T13:59:06.180Z,26.39
2018-10-12T14:00:06.341Z,26.28
2018-10-12T14:01:06.501Z,26.24
2018-10-12T14:02:06.655Z,26.24
2018-10-12T14:03:06.812Z,26.29
2018-10-12T14:04:06.965Z,26.46
2018-10-12T14:05:07.403Z,26.55
2018-10-12T14:06:07.301Z,27.14
2018-10-12T14:07:07.461Z,27.99
2018-10-12T14:08:07.625Z,28.51
2018-10-12T14:09:07.782Z,28.32
2018-10-12T14:10:07.947Z,27.73
2018-10-12T14:11:08.100Z,27.43
2018-10-12T14:12:08.320Z,27.01
2018-10-12T14:13:08.421Z,26.87
2018-10-12T14:14:08.582Z,26.59
2018-10-12T14:15:08.743Z,26.79
2018-10-12T14:16:08.904Z,27.64
2018-10-12T14:17:09.063Z,28.62
2018-10-12T14:18:09.244Z,29.45
2018-10-12T14:19:09.664Z,30.05
2018-10-12T14:20:09.605Z,30.54
2018-10-12T14:21:09.705Z,31.12
2018-10-12T14:22:09.863Z,30.56
2018-10-12T14:23:10.023Z,29.84
2018-10-12T14:24:10.182Z,29.07
2018-10-12T14:25:10.378Z,28.56
2018-10-12T14:26:10.505Z,27.94
2018-10-12T14:27:10.666Z,27.53
2018-10-12T14:28:10.827Z,27.10
2018-10-12T14:29:10.987Z,26.67
2018-10-12T14:30:11.148Z,26.83
2018-10-12T14:31:11.307Z,26.59
2018-10-12T14:32:11.466Z,26.47
2018-10-12T14:33:11.625Z,26.36
2018-10-12T14:34:11.789Z,26.15
2018-10-12T14:35:11.947Z,26.01
2018-10-12T14:36:12.108Z,25.89
2018-10-12T14:37:12.266Z,25.87
2018-10-12T14:38:12.427Z,25.84
2018-10-12T14:39:12.588Z,25.84
2018-10-12T14:40:12.747Z,25.91
2018-10-12T14:41:12.905Z,25.87
2018-10-12T14:42:13.069Z,25.75
2018-10-12T14:43:13.228Z,25.74
2018-10-12T14:44:13.541Z,25.65
2018-10-12T14:45:13.551Z,25.65
2018-10-12T14:46:13.712Z,25.64
2018-10-12T14:47:13.870Z,25.62
2018-10-12T14:48:14.029Z,25.52
2018-10-12T14:49:14.192Z,25.53
2018-10-12T14:50:14.346Z,25.44
2018-10-12T14:51:14.535Z,25.50
2018-10-12T14:52:14.662Z,25.44
2018-10-12T14:53:14.844Z,25.38
2018-10-12T14:54:14.983Z,25.46
2018-10-12T14:55:15.140Z,25.39
2018-10-12T14:56:15.304Z,25.34
2018-10-12T14:57:15.463Z,25.34
2018-10-12T14:58:15.621Z,25.31
2018-10-12T14:59:15.780Z,25.32
2018-10-12T15:00:15.940Z,25.25
2018-10-12T15:01:16.101Z,25.35
2018-10-12T15:02:16.256Z,25.34
2018-10-12T15:03:16.415Z,25.28
2018-10-12T15:04:16.574Z,25.32
2018-10-12T15:05:16.733Z,25.43
2018-10-12T15:06:16.894Z,25.25
2018-10-12T15:07:17.053Z,25.16
2018-10-12T15:08:17.211Z,25.19
2018-10-12T15:09:17.368Z,25.19
2018-10-12T15:10:17.531Z,25.15
2018-10-12T15:11:17.690Z,25.16
2018-10-12T15:12:17.854Z,25.02
2018-10-12T15:13:18.012Z,25.09
2018-10-12T15:14:18.172Z,25.05
2018-10-12T15:15:18.333Z,25.06
2018-10-12T15:16:18.491Z,24.94
2018-10-12T15:17:18.649Z,24.90
2018-10-12T15:18:18.810Z,24.92
2018-10-12T15:19:18.968Z,24.98
2018-10-12T15:20:19.126Z,24.91
2018-10-12T15:21:19.422Z,24.82
2018-10-12T15:22:19.445Z,24.82
2018-10-12T15:23:19.605Z,24.73
2018-10-12T15:24:19.759Z,24.57
2018-10-12T15:25:19.918Z,24.75
2018-10-12T15:26:20.075Z,24.61
2018-10-12T15:27:20.235Z,24.61
2018-10-12T15:28:20.394Z,24.49
2018-10-12T15:29:20.554Z,24.57
2018-10-12T15:30:20.711Z,24.50
2018-10-12T15:31:20.869Z,24.39
2018-10-12T15:32:21.035Z,24.44
2018-10-12T15:33:21.189Z,24.50
2018-10-12T15:34:21.346Z,24.42
2018-10-12T15:35:21.502Z,24.39
2018-10-12T15:36:21.663Z,24.44
2018-10-12T15:37:21.885Z,24.31
2018-10-12T15:38:21.991Z,24.49
2018-10-12T15:39:22.135Z,24.41
2018-10-12T15:40:22.296Z,24.29
2018-10-12T15:41:22.452Z,24.35
2018-10-12T15:42:22.611Z,24.26
2018-10-12T15:43:22.846Z,24.17
2018-10-12T15:44:22.926Z,24.22
2018-10-12T15:45:23.118Z,24.14
2018-10-12T15:46:23.245Z,24.13
2018-10-12T15:47:23.405Z,24.20
2018-10-12T15:48:23.561Z,24.02
2018-10-12T15:49:23.719Z,24.04
2018-10-12T15:50:23.965Z,23.95
2018-10-12T15:51:24.051Z,24.05
2018-10-12T15:52:24.190Z,23.92
2018-10-12T15:53:24.345Z,23.92
2018-10-12T15:54:24.505Z,23.94
2018-10-12T15:55:24.664Z,23.89
2018-10-12T15:56:24.822Z,23.77
2018-10-12T15:57:24.979Z,23.76
2018-10-12T15:58:25.141Z,23.76
2018-10-12T15:59:25.300Z,23.85
2018-10-12T16:00:25.459Z,23.80
2018-10-12T16:01:25.616Z,23.82
2018-10-12T16:02:25.774Z,23.67
2018-10-12T16:03:25.927Z,23.70
2018-10-12T16:04:26.086Z,23.65
2018-10-12T16:05:26.241Z,23.70
2018-10-12T16:06:26.437Z,23.61
2018-10-12T16:07:26.555Z,23.53
2018-10-12T16:08:26.713Z,23.47
2018-10-12T16:09:26.869Z,23.43
2018-10-12T16:10:27.029Z,23.39
2018-10-12T16:11:27.185Z,23.39
2018-10-12T16:12:27.345Z,23.43
2018-10-12T16:13:27.499Z,23.34
2018-10-12T16:14:27.658Z,23.34
2018-10-12T16:15:27.815Z,23.35
2018-10-12T16:16:27.974Z,23.38
2018-10-12T16:17:28.129Z,23.27
2018-10-12T16:18:28.287Z,23.23
2018-10-12T16:19:28.442Z,23.17
2018-10-12T16:20:28.600Z,23.12
2018-10-12T16:21:28.757Z,23.02
2018-10-12T16:22:28.955Z,23.15
2018-10-12T16:23:29.069Z,23.08
2018-10-12T16:24:29.229Z,23.04
2018-10-12T16:25:29.387Z,23.15
2018-10-12T16:26:29.543Z,23.02
2018-10-12T16:27:29.746Z,23.04
2018-10-12T16:28:29.862Z,23.01
2018-10-12T16:29:30.018Z,22.96
2018-10-12T16:30:30.175Z,22.90
2018-10-12T16:31:30.329Z,22.87
2018-10-12T16:32:30.488Z,22.96
2018-10-12T16:33:30.648Z,22.84
2018-10-12T16:34:30.801Z,22.80
2018-10-12T16:35:30.959Z,22.84
2018-10-12T16:36:31.159Z,22.80
2018-10-12T16:37:31.273Z,22.80
2018-10-12T16:38:31.432Z,22.71
2018-10-12T16:39:31.589Z,22.75
2018-10-12T16:40:31.746Z,22.72
2018-10-12T16:41:31.908Z,22.60
2018-10-12T16:42:32.059Z,22.57
2018-10-12T16:43:32.218Z,22.62
2018-10-12T16:44:32.378Z,22.56
2018-10-12T16:45:32.531Z,22.50
2018-10-12T16:46:32.688Z,22.50
2018-10-12T16:47:32.845Z,22.44
2018-10-12T16:48:33.008Z,22.23
2018-10-12T16:49:33.162Z,22.10
2018-10-12T16:50:33.317Z,22.07
2018-10-12T16:51:33.474Z,22.02
2018-10-12T16:52:33.633Z,21.91
2018-10-12T16:53:33.813Z,21.72
2018-10-12T16:54:33.970Z,21.59
2018-10-12T16:55:34.128Z,21.50
2018-10-12T16:56:34.283Z,21.38
2018-10-12T16:57:34.443Z,21.41
2018-10-12T16:58:34.597Z,21.17
2018-10-12T16:59:34.756Z,20.95
2018-10-12T17:00:34.911Z,20.87
2018-10-12T17:01:35.069Z,20.81
2018-10-12T17:02:35.223Z,20.77
2018-10-12T17:03:35.379Z,20.56
2018-10-12T17:04:35.553Z,20.46
2018-10-12T17:05:35.692Z,20.27
2018-10-12T17:06:35.848Z,20.15
2018-10-12T17:07:36.006Z,20.02
2018-10-12T17:08:36.161Z,19.93
2018-10-12T17:09:36.316Z,19.97
2018-10-12T17:10:36.475Z,19.83
2018-10-12T17:11:36.631Z,19.86
2018-10-12T17:12:36.839Z,19.80
2018-10-12T17:13:36.947Z,19.75
2018-10-12T17:14:37.103Z,19.76
2018-10-12T17:15:37.263Z,19.72
2018-10-12T17:16:37.416Z,19.76
2018-10-12T17:17:37.571Z,19.66
2018-10-12T17:18:37.726Z,19.57
2018-10-12T17:19:37.878Z,19.61
2018-10-12T17:20:38.054Z,19.47
2018-10-12T17:21:38.211Z,19.50
2018-10-12T17:22:38.370Z,19.46
2018-10-12T17:23:38.524Z,19.48
2018-10-12T17:24:38.679Z,19.38
2018-10-12T17:25:38.893Z,19.43
2018-10-12T17:26:38.924Z,19.39
2018-10-12T17:27:39.081Z,19.35
2018-10-12T17:28:39.237Z,19.35
2018-10-12T17:29:39.406Z,19.24
2018-10-12T17:30:39.560Z,19.17
2018-10-12T17:31:39.723Z,19.15
2018-10-12T17:32:39.890Z,19.17
2018-10-12T17:33:40.061Z,19.08
2018-10-12T17:34:40.299Z,19.15
2018-10-12T17:35:40.379Z,19.08
2018-10-12T17:36:40.548Z,19.13
2018-10-12T17:37:40.706Z,18.98
2018-10-12T17:38:40.865Z,18.99
2018-10-12T17:39:41.022Z,19.01
2018-10-12T17:40:41.177Z,18.92
2018-10-12T17:41:41.337Z,19.05
2018-10-12T17:42:41.487Z,19.05
2018-10-12T17:43:41.646Z,18.95
2018-10-12T17:44:41.803Z,18.87
2018-10-12T17:45:41.955Z,18.91
2018-10-12T17:46:42.110Z,18.90
2018-10-12T17:47:42.297Z,18.84
2018-10-12T17:48:42.432Z,18.84
2018-10-12T17:49:42.591Z,18.79
2018-10-12T17:50:42.745Z,18.76
2018-10-12T17:51:43.026Z,18.65
2018-10-12T17:52:43.031Z,18.65
2018-10-12T17:53:43.185Z,18.72
2018-10-12T17:54:43.342Z,18.68
2018-10-12T17:55:43.496Z,18.68
2018-10-12T17:56:43.655Z,18.64
2018-10-12T17:57:43.810Z,18.61
2018-10-12T17:58:43.968Z,18.62
2018-10-12T17:59:44.127Z,18.61
2018-10-12T18:00:44.336Z,18.57
2018-10-12T18:01:44.507Z,18.61
2018-10-12T18:02:44.674Z,18.46
2018-10-12T18:03:44.830Z,18.33
2018-10-12T18:04:44.985Z,18.33
2018-10-12T18:05:45.154Z,18.34
2018-10-12T18:06:45.335Z,18.28
2018-10-12T18:07:45.503Z,18.31
2018-10-12T18:08:45.695Z,18.27
2018-10-12T18:09:45.817Z,18.31
2018-10-12T18:10:45.976Z,18.19
2018-10-12T18:11:46.125Z,18.17
2018-10-12T18:12:46.282Z,18.19
2018-10-12T18:13:46.451Z,18.19
2018-10-12T18:14:46.615Z,18.21
2018-10-12T18:15:46.771Z,18.10
2018-10-12T18:16:46.932Z,18.15
2018-10-12T18:17:47.081Z,18.09
2018-10-12T18:18:47.270Z,18.07
2018-10-12T18:19:47.596Z,17.91
2018-10-12T18:20:47.525Z,17.79
2018-10-12T18:21:47.684Z,17.88
2018-10-12T18:22:47.844Z,17.74
2018-10-12T18:23:47.994Z,17.78
2018-10-12T18:24:48.150Z,17.69
2018-10-12T18:25:48.374Z,17.57
2018-10-12T18:26:48.495Z,17.67
2018-10-12T18:27:48.719Z,17.71
2018-10-12T18:28:48.853Z,17.71
2018-10-12T18:29:48.939Z,17.66
2018-10-12T18:30:49.035Z,17.66
2018-10-12T18:31:49.084Z,17.59
2018-10-12T18:32:49.285Z,17.64
2018-10-12T18:33:49.457Z,17.67
2018-10-12T18:34:49.617Z,17.59
2018-10-12T18:35:49.778Z,17.63
2018-10-12T18:36:49.976Z,17.51
2018-10-12T18:37:50.131Z,17.51
2018-10-12T18:38:50.314Z,17.53
2018-10-12T18:39:50.470Z,17.48
2018-10-12T18:40:50.686Z,17.48
2018-10-12T18:41:50.983Z,17.50
2018-10-12T18:42:51.156Z,17.55
2018-10-12T18:43:51.288Z,17.38
2018-10-12T18:44:51.427Z,17.41
2018-10-12T18:45:51.658Z,17.28
2018-10-12T18:46:51.785Z,17.28
2018-10-12T18:47:51.896Z,17.29
2018-10-12T18:48:52.021Z,17.29
2018-10-12T18:49:52.129Z,17.15
2018-10-12T18:50:52.288Z,17.13
2018-10-12T18:51:52.314Z,17.14
2018-10-12T18:52:52.584Z,17.08
2018-10-12T18:53:52.720Z,17.04
2018-10-12T18:54:52.871Z,17.06
2018-10-12T18:55:53.071Z,17.08
2018-10-12T18:56:53.244Z,17.04
2018-10-12T18:57:53.386Z,17.06
2018-10-12T18:58:53.557Z,17.06
2018-10-12T18:59:53.719Z,16.99
2018-10-12T19:00:53.817Z,17.06
2018-10-12T19:01:53.993Z,17.00
2018-10-12T19:02:54.116Z,16.99
2018-10-12T19:03:54.286Z,16.90
2018-10-12T19:04:54.474Z,16.83
2018-10-12T19:05:54.609Z,16.92
2018-10-12T19:06:54.719Z,16.98
2018-10-12T19:07:54.768Z,16.99
2018-10-12T19:08:54.986Z,17.03
2018-10-12T19:09:55.129Z,16.96
2018-10-12T19:10:55.181Z,17.00
2018-10-12T19:11:55.483Z,17.03
2018-10-12T19:12:55.656Z,16.98
2018-10-12T19:13:55.697Z,16.99
2018-10-12T19:14:55.860Z,16.96
2018-10-12T19:15:56.013Z,16.90
2018-10-12T19:16:56.233Z,16.93
2018-10-12T19:17:56.331Z,16.96
2018-10-12T19:18:56.358Z,16.86
2018-10-12T19:19:56.562Z,16.81
2018-10-12T19:20:56.787Z,16.89
2018-10-12T19:21:56.826Z,16.75
2018-10-12T19:22:56.996Z,16.74
2018-10-12T19:23:57.211Z,16.75
2018-10-12T19:24:57.436Z,16.78
2018-10-12T19:25:57.563Z,16.74
2018-10-12T19:26:57.745Z,16.63
2018-10-12T19:27:57.834Z,16.63
2018-10-12T19:28:57.966Z,16.62
2018-10-12T19:29:58.091Z,16.62
2018-10-12T19:30:58.265Z,16.56
2018-10-12T19:31:58.489Z,16.55
2018-10-12T19:32:58.603Z,16.56
2018-10-12T19:33:58.758Z,16.44
2018-10-12T19:34:58.938Z,16.45
2018-10-12T19:35:59.132Z,16.49
2018-10-12T19:36:59.264Z,16.27
2018-10-12T19:37:59.377Z,16.20
2018-10-12T19:38:59.534Z,16.18
2018-10-12T19:39:59.667Z,16.25
2018-10-12T19:40:59.849Z,16.22
2018-10-12T19:41:59.976Z,16.20
2018-10-12T19:43:00.148Z,16.09
2018-10-12T19:44:00.324Z,16.14
2018-10-12T19:45:00.425Z,16.12
2018-10-12T19:46:00.582Z,16.03
2018-10-12T19:47:00.752Z,15.96
2018-10-12T19:48:00.906Z,15.92
2018-10-12T19:49:01.089Z,15.94
2018-10-12T19:50:01.168Z,15.92
2018-10-12T19:51:01.402Z,15.92
2018-10-12T19:52:01.495Z,15.96
2018-10-12T19:53:01.751Z,15.94
2018-10-12T19:54:01.818Z,15.82
2018-10-12T19:55:01.952Z,15.85
2018-10-12T19:56:02.111Z,15.85
2018-10-12T19:57:02.262Z,15.88
2018-10-12T19:58:02.385Z,15.81
2018-10-12T19:59:02.586Z,15.81
2018-10-12T20:00:02.640Z,15.86
2018-10-12T20:01:02.762Z,15.67
2018-10-12T20:02:02.903Z,15.76
2018-10-12T20:03:03.056Z,15.74
2018-10-12T20:04:03.214Z,15.66
2018-10-12T20:05:03.348Z,15.61
2018-10-12T20:06:03.411Z,15.63
2018-10-12T20:07:03.621Z,15.63
2018-10-12T20:08:03.890Z,15.66
2018-10-12T20:09:04.019Z,15.60
2018-10-12T20:10:04.139Z,15.59
2018-10-12T20:11:04.262Z,15.57
2018-10-12T20:12:04.369Z,15.67
2018-10-12T20:13:04.533Z,15.67
2018-10-12T20:14:04.703Z,15.68
2018-10-12T20:15:04.836Z,15.59
2018-10-12T20:16:04.980Z,15.51
2018-10-12T20:17:05.164Z,15.52
2018-10-12T20:18:05.272Z,15.46
2018-10-12T20:19:05.408Z,15.48
2018-10-12T20:20:05.512Z,15.45
2018-10-12T20:21:05.695Z,15.42
2018-10-12T20:22:05.820Z,15.51
2018-10-12T20:23:05.910Z,15.39
2018-10-12T20:24:06.014Z,15.48
2018-10-12T20:25:06.110Z,15.46
2018-10-12T20:26:06.316Z,15.51
2018-10-12T20:27:06.532Z,15.51
2018-10-12T20:28:06.624Z,15.46
2018-10-12T20:29:06.663Z,15.46
2018-10-12T20:30:06.820Z,15.41
2018-10-12T20:31:06.981Z,15.36
2018-10-12T20:32:07.165Z,15.26
2018-10-12T20:33:07.332Z,15.30
2018-10-12T20:34:07.563Z,15.15
2018-10-12T20:35:07.604Z,15.05
2018-10-12T20:36:07.759Z,15.09
2018-10-12T20:37:08.052Z,15.06
2018-10-12T20:38:08.170Z,15.08
2018-10-12T20:39:08.234Z,15.05
2018-10-12T20:40:08.366Z,15.06
2018-10-12T20:41:08.523Z,15.01
2018-10-12T20:42:08.751Z,15.05
2018-10-12T20:43:08.777Z,15.01
2018-10-12T20:44:08.929Z,15.01
2018-10-12T20:45:09.086Z,14.94
2018-10-12T20:46:09.263Z,14.94
2018-10-12T20:47:09.447Z,15.03
2018-10-12T20:48:09.606Z,15.02
2018-10-12T20:49:09.764Z,14.99
2018-10-12T20:50:09.919Z,14.90
2018-10-12T20:51:10.070Z,14.95
2018-10-12T20:52:10.232Z,14.91
2018-10-12T20:53:10.396Z,14.93
2018-10-12T20:54:10.572Z,14.87
2018-10-12T20:55:10.733Z,14.83
2018-10-12T20:56:10.904Z,14.88
2018-10-12T20:57:11.107Z,14.83
2018-10-12T20:58:11.206Z,14.78
2018-10-12T20:59:11.359Z,14.80
2018-10-12T21:00:11.517Z,14.75
2018-10-12T21:01:11.671Z,14.81
2018-10-12T21:02:11.855Z,14.81
2018-10-12T21:03:11.973Z,14.81
2018-10-12T21:04:12.128Z,14.71
2018-10-12T21:05:12.284Z,14.75
2018-10-12T21:06:12.451Z,14.69
2018-10-12T21:07:12.611Z,14.74
2018-10-12T21:08:12.773Z,14.64
2018-10-12T21:09:12.932Z,14.69
2018-10-12T21:10:13.096Z,14.65
2018-10-12T21:11:13.268Z,14.67
2018-10-12T21:12:13.431Z,14.54
2018-10-12T21:13:13.584Z,14.57
2018-10-12T21:14:13.735Z,14.54
2018-10-12T21:15:13.886Z,14.53
2018-10-12T21:16:14.038Z,14.56
2018-10-12T21:17:14.193Z,14.46
2018-10-12T21:18:14.399Z,14.39
2018-10-12T21:19:14.567Z,14.34
2018-10-12T21:20:14.842Z,14.24
2018-10-12T21:21:14.914Z,14.34
2018-10-12T21:22:15.078Z,14.28
2018-10-12T21:23:15.237Z,14.28
2018-10-12T21:24:15.387Z,14.27
2018-10-12T21:25:15.553Z,14.28
2018-10-12T21:26:15.769Z,14.28
2018-10-12T21:27:15.809Z,14.24
2018-10-12T21:28:15.994Z,14.24
2018-10-12T21:29:16.116Z,14.34
2018-10-12T21:30:16.269Z,14.31
2018-10-12T21:31:16.423Z,14.32
2018-10-12T21:32:16.584Z,14.28
2018-10-12T21:33:16.742Z,14.29
2018-10-12T21:34:16.892Z,14.20
2018-10-12T21:35:17.044Z,14.24
2018-10-12T21:36:17.195Z,14.29
2018-10-12T21:37:17.351Z,14.28
2018-10-12T21:38:17.505Z,14.28
2018-10-12T21:39:17.656Z,14.20
2018-10-12T21:40:17.884Z,14.10
2018-10-12T21:41:17.980Z,14.04
2018-10-12T21:42:18.134Z,14.12
2018-10-12T21:43:18.280Z,14.16
2018-10-12T21:44:18.431Z,14.13
2018-10-12T21:45:18.583Z,14.16
2018-10-12T21:46:18.735Z,14.04
2018-10-12T21:47:18.887Z,13.99
2018-10-12T21:48:19.041Z,13.95
2018-10-12T21:49:19.191Z,13.92
2018-10-12T21:50:19.360Z,13.88
2018-10-12T21:51:19.492Z,13.89
2018-10-12T21:52:19.643Z,13.83
2018-10-12T21:53:19.796Z,13.69
2018-10-12T21:54:19.947Z,13.71
2018-10-12T21:55:20.097Z,13.69
2018-10-12T21:56:20.251Z,13.70
2018-10-12T21:57:20.402Z,13.71
2018-10-12T21:58:20.560Z,13.80
2018-10-12T21:59:20.714Z,13.83
2018-10-12T22:00:20.869Z,13.76
2018-10-12T22:01:21.040Z,13.63
2018-10-12T22:02:21.191Z,13.70
2018-10-12T22:03:21.360Z,13.69
2018-10-12T22:04:21.509Z,13.67
2018-10-12T22:05:21.660Z,13.61
2018-10-12T22:06:21.810Z,13.65
2018-10-12T22:07:22.029Z,13.61
2018-10-12T22:08:22.119Z,13.61
2018-10-12T22:09:22.267Z,13.69
2018-10-12T22:10:22.418Z,13.59
2018-10-12T22:11:22.575Z,13.55
2018-10-12T22:12:22.726Z,13.61
2018-10-12T22:13:22.877Z,13.56
2018-10-12T22:14:23.029Z,13.59
2018-10-12T22:15:23.183Z,13.61
2018-10-12T22:16:23.334Z,13.58
2018-10-12T22:17:23.482Z,13.61
2018-10-12T22:18:23.636Z,13.54
2018-10-12T22:19:23.789Z,13.44
2018-10-12T22:20:23.937Z,13.51
2018-10-12T22:21:24.088Z,13.41
2018-10-12T22:22:24.239Z,13.56
2018-10-12T22:23:24.390Z,13.59
2018-10-12T22:24:24.539Z,13.43
2018-10-12T22:25:24.692Z,13.44
2018-10-12T22:26:24.844Z,13.51
2018-10-12T22:27:24.994Z,13.51
2018-10-12T22:28:25.143Z,13.49
2018-10-12T22:29:25.296Z,13.44
2018-10-12T22:30:25.446Z,13.36
2018-10-12T22:31:25.596Z,13.21
2018-10-12T22:32:25.752Z,13.38
2018-10-12T22:33:25.900Z,13.49
2018-10-12T22:34:26.055Z,13.38
2018-10-12T22:35:26.205Z,13.43
2018-10-12T22:36:26.356Z,13.47
2018-10-12T22:37:26.509Z,13.52
2018-10-12T22:38:26.660Z,13.54
2018-10-12T22:39:26.810Z,13.49
2018-10-12T22:40:26.962Z,13.58
2018-10-12T22:41:27.116Z,13.54
2018-10-12T22:42:27.262Z,13.47
2018-10-12T22:43:27.414Z,13.44
2018-10-12T22:44:27.566Z,13.47
2018-10-12T22:45:27.718Z,13.51
2018-10-12T22:46:27.870Z,13.58
2018-10-12T22:47:28.018Z,13.47
2018-10-12T22:48:28.170Z,13.58
2018-10-12T22:49:28.318Z,13.46
2018-10-12T22:50:28.471Z,13.47
2018-10-12T22:51:28.624Z,13.59
2018-10-12T22:52:28.771Z,13.56
2018-10-12T22:53:28.921Z,13.52
2018-10-12T22:54:29.072Z,13.44
2018-10-12T22:55:29.231Z,13.33
2018-10-12T22:56:29.375Z,13.25
2018-10-12T22:57:29.525Z,13.22
2018-10-12T22:58:29.677Z,13.20
2018-10-12T22:59:29.831Z,13.27
2018-10-12T23:00:29.980Z,13.29
2018-10-12T23:01:30.133Z,13.24
2018-10-12T23:02:30.284Z,13.21
2018-10-12T23:03:30.434Z,13.15
2018-10-12T23:04:30.586Z,13.07
2018-10-12T23:05:30.735Z,13.20
2018-10-12T23:06:30.885Z,13.22
2018-10-12T23:07:31.037Z,13.22
2018-10-12T23:08:31.190Z,13.09
2018-10-12T23:09:31.337Z,13.11
2018-10-12T23:10:31.491Z,13.17
2018-10-12T23:11:31.643Z,13.18
2018-10-12T23:12:31.844Z,13.11
2018-10-12T23:13:31.943Z,13.12
2018-10-12T23:14:32.096Z,13.12
2018-10-12T23:15:32.246Z,13.20
2018-10-12T23:16:32.394Z,13.20
2018-10-12T23:17:32.545Z,13.25
2018-10-12T23:18:32.745Z,13.25
2018-10-12T23:19:32.850Z,13.27
2018-10-12T23:20:32.997Z,13.18
2018-10-12T23:21:33.146Z,13.24
2018-10-12T23:22:33.296Z,13.25
2018-10-12T23:23:33.446Z,13.33
2018-10-12T23:24:33.599Z,13.33
2018-10-12T23:25:33.756Z,13.32
2018-10-12T23:26:33.900Z,13.30
2018-10-12T23:27:34.082Z,13.36
2018-10-12T23:28:34.237Z,13.37
2018-10-12T23:29:34.387Z,13.32
2018-10-12T23:30:34.538Z,13.32
2018-10-12T23:31:34.691Z,13.32
2018-10-12T23:32:34.839Z,13.21
2018-10-12T23:33:34.988Z,13.25
2018-10-12T23:34:35.139Z,13.37
2018-10-12T23:35:35.291Z,13.30
2018-10-12T23:36:35.442Z,13.30
2018-10-12T23:37:35.593Z,13.29
2018-10-12T23:38:35.741Z,13.25
2018-10-12T23:39:35.890Z,13.24
2018-10-12T23:40:36.040Z,13.21
2018-10-12T23:41:36.191Z,13.27
2018-10-12T23:42:36.341Z,13.24
2018-10-12T23:43:36.492Z,13.29
2018-10-12T23:44:36.643Z,13.29
2018-10-12T23:45:36.795Z,13.25
2018-10-12T23:46:36.942Z,13.29
2018-10-12T23:47:37.097Z,13.27
2018-10-12T23:48:37.247Z,13.29
2018-10-12T23:49:37.397Z,13.24
2018-10-12T23:50:37.549Z,13.25
2018-10-12T23:51:37.699Z,13.24
2018-10-12T23:52:37.849Z,13.20
2018-10-12T23:53:38.000Z,12.99
2018-10-12T23:54:38.149Z,12.99
2018-10-12T23:55:38.302Z,12.99
2018-10-12T23:56:38.452Z,13.00
2018-10-12T23:57:38.599Z,12.89
2018-10-12T23:58:38.751Z,12.87
2018-10-12T23:59:38.909Z,12.93
